San Luis Potosi, Mexico

5:36 PM CDT on May 22, 2015 (GMT -0500)
Ponciano Arriaga International | | Change Station
CLOSE
Current Station
Airport
Location: San Luis Potosi,
Elevation: 6033 ft
Nearby Weather Stations

Elev 6033 ft 22.26 °N, 100.93 °W | Updated 52 minutes ago

Scattered Clouds
Scattered Clouds
75 °F
Feels Like 75 °F
N
20
Wind Variable Wind from ENE

Today
High -- | Low -- °F
--% Chance of Precip.
Yesterday
High -- | Low -- °F
Precip. -- in
7:01 AM 8:19 PM
Waxing Crescent, 24% visible
Pressure 30.23 in
Visibility 15.0 miles
Clouds Scattered Clouds 2000 ft
Scattered Clouds 23000 ft
Dew Point 54 °F
Humidity 47%
Rainfall 0.85 in
Snow Depth Not available.
UV 6 out of 12
Pollen Not available.
Air Quality Not available.
Flu Activity Not available.
METAR MMSP 222144Z 06017KT 15SM SCT020TCU SCT230 24/12 A3023 RMK 8/201 AC

More Conditions Fewer Conditions

Pressure 30.23 in
Visibility 15.0 miles
Clouds Scattered Clouds 2000 ft
Scattered Clouds 23000 ft
Dew Point 54 °F
Humidity 47%
Rainfall 0.85 in
Snow Depth Not available.
UV 6 out of 12
Pollen Not available.
Air Quality Not available.
Flu Activity Not available.
METAR MMSP 222144Z 06017KT 15SM SCT020TCU SCT230 24/12 A3023 RMK 8/201 AC

More Conditions Fewer Conditions

10-Day Weather Forecast

Almanac

Astronomy

May. 22, 2015 Rise Set
Actual Time
Civil Twilight
Nautical Twilight
Astronomical Twilight
Moon
Length of Visible Light
Length of Day
Tomorrow will be .
, % of the Moon is Illuminated

Today's Extremes

Country Highs Country Lows

Community

WunderPhotos

Upload Photos

1,823,324 photos uploaded!

WunderBlogs® & News

Nearby

Air Quality

  Air Quality AQ Index Pollutant
Not available.

Snow Depth

Station Depth Elevation

Earthquake Activity

City Distance Mag. Time & Date
Minimum magnitude displayed is 2.5.

Coastal Water Temperatures

Place Temperature

Stations

Nearby Weather Stations

Station Location Temp. Windchill Dew Point Humidity Wind Precip. Elev Updated Type